In Rescue
 
Open Full Screen Window  High Contrast Mode
Wind Gusting 00 knots
07
May 25, 2022 10:39 PM EDT
Weather Information
Wind Direction
  140 °
Wind Speed
  07 kt (8 mph)
Wind Gust
  00 kt (0 mph)
Altimeter
30.34 in
Visibility
10 SM
Temperature
17° C
63° F
Dewpoint
06° C
43° F
Humidity
49%
Sky Condition
Overcast @ 6,000 ft
VFR

METAR K22N 260239Z AUTO 14007KT 10SM OVC060 17/06 A3034 RMK AO2

FAA Disclaimer: The data displayed is for advisory purposes only and is not to be used for flight planning or operations.